Time;durP1;ratioP1;P1;durP2;ratioP2;P2;SDS_P1;SDS_P2;PMS_P1;PMS_P2;Temp;Humidity;BMP_temperature;BMP_pressure;BME280_temperature;BME280_humidity;BME280_pressure;Samples;Min_cycle;Max_cycle;Signal;HPM_P1;HPM_P2
2022/09/25 00:01:36;;;;;;;5.50;2.53;;;10.40;97.30;;;;;;5070207;28;20184;-89
2022/09/25 00:04:02;;;;;;;4.03;3.23;;;10.30;97.30;;;;;;5053053;28;20214;-90
2022/09/25 00:06:28;;;;;;;15.40;4.27;;;10.30;97.30;;;;;;5053404;28;20576;-89
2022/09/25 00:08:55;;;;;;;4.37;4.10;;;10.20;97.30;;;;;;5053331;28;20556;-89
2022/09/25 00:11:23;;;;;;;4.60;2.80;;;10.10;97.30;;;;;;5053335;28;20426;-90
2022/09/25 00:13:50;;;;;;;2.97;2.80;;;10.10;97.30;;;;;;5052656;28;20442;-90
2022/09/25 00:16:21;;;;;;;3.23;2.70;;;10.00;97.30;;;;;;5052763;28;20466;-90
2022/09/25 00:21:31;;;;;;;5.57;3.83;;;9.90;97.30;;;;;;5052990;28;20409;-90
2022/09/25 00:24:02;;;;;;;4.83;3.00;;;9.90;97.30;;;;;;5053723;28;20457;-90
2022/09/25 00:26:30;;;;;;;4.63;3.77;;;9.90;97.30;;;;;;5052706;28;20461;-90
2022/09/25 00:28:56;;;;;;;2.90;2.57;;;9.90;97.30;;;;;;5053942;28;20513;-90
2022/09/25 00:31:25;;;;;;;4.43;3.70;;;9.80;97.30;;;;;;5052757;28;20418;-90
2022/09/25 00:33:51;;;;;;;3.33;2.90;;;9.80;97.30;;;;;;5054228;28;20905;-89
2022/09/25 00:36:17;;;;;;;3.10;2.90;;;9.80;97.30;;;;;;5051688;28;20454;-89
2022/09/25 00:38:45;;;;;;;3.40;3.20;;;9.70;97.30;;;;;;5040129;28;20208;-89
2022/09/25 00:41:13;;;;;;;2.43;2.23;;;9.70;97.30;;;;;;5049514;28;20216;-89
2022/09/25 00:43:43;;;;;;;4.10;3.10;;;9.70;97.30;;;;;;5046893;28;20454;-89
2022/09/25 00:46:41;;;;;;;4.43;1.97;;;9.70;97.30;;;;;;5036047;28;20501;-90
2022/09/25 00:49:21;;;;;;;2.77;2.30;;;9.70;97.30;;;;;;5022778;28;20500;-90
2022/09/25 00:51:52;;;;;;;2.20;2.07;;;9.70;97.30;;;;;;5052665;28;20426;-89
2022/09/25 00:54:39;;;;;;;2.40;2.13;;;9.70;97.30;;;;;;5052443;28;20940;-90
2022/09/25 00:57:07;;;;;;;2.93;2.73;;;9.70;97.30;;;;;;5052447;28;20432;-89
2022/09/25 00:59:37;;;;;;;2.60;2.40;;;9.70;97.30;;;;;;5053596;28;20418;-90
2022/09/25 01:02:27;;;;;;;7.00;2.13;;;9.70;97.30;;;;;;5052283;28;20509;-89
2022/09/25 01:04:59;;;;;;;2.77;2.60;;;9.70;97.30;;;;;;5051957;28;20454;-89
2022/09/25 01:07:24;;;;;;;5.20;3.97;;;9.70;97.30;;;;;;5052613;28;20418;-89
2022/09/25 01:09:50;;;;;;;5.27;4.03;;;9.70;97.30;;;;;;5052326;28;20411;-88
2022/09/25 01:12:50;;;;;;;4.23;2.93;;;9.60;97.30;;;;;;5052117;28;20206;-89
2022/09/25 01:15:24;;;;;;;2.53;2.33;;;9.60;97.30;;;;;;5051640;28;20291;-89
2022/09/25 01:17:59;;;;;;;5.70;2.50;;;9.50;97.30;;;;;;5046272;28;20505;-89
2022/09/25 01:20:24;;;;;;;2.47;2.27;;;9.40;97.30;;;;;;5052348;28;20398;-88
2022/09/25 01:23:17;;;;;;;1.67;1.63;;;9.40;97.30;;;;;;5052133;28;20456;-90
2022/09/25 01:26:03;;;;;;;4.80;2.57;;;9.30;97.30;;;;;;5061063;28;20796;-89
2022/09/25 01:29:00;;;;;;;4.00;2.13;;;9.30;97.30;;;;;;5052158;28;20429;-90
2022/09/25 01:32:02;;;;;;;3.57;3.40;;;9.20;97.30;;;;;;5050548;28;20461;-89
2022/09/25 01:34:52;;;;;;;3.43;2.50;;;9.20;97.30;;;;;;5051151;28;20782;-90
2022/09/25 01:37:42;;;;;;;3.90;2.10;;;9.20;97.30;;;;;;5040893;28;20465;-89
2022/09/25 01:40:32;;;;;;;3.00;2.13;;;9.20;97.30;;;;;;5051700;28;20475;-90
2022/09/25 01:43:13;;;;;;;1.93;1.73;;;9.20;97.30;;;;;;5051585;28;20453;-90
2022/09/25 01:46:02;;;;;;;4.50;3.50;;;9.20;97.30;;;;;;5051195;28;20525;-89
2022/09/25 01:48:30;;;;;;;2.67;2.30;;;9.20;97.30;;;;;;5036074;28;20899;-89
2022/09/25 01:50:59;;;;;;;2.90;2.40;;;9.30;97.30;;;;;;5031503;28;20449;-89
2022/09/25 01:53:48;;;;;;;2.83;2.53;;;9.30;97.30;;;;;;5046106;28;20960;-89
2022/09/25 01:56:39;;;;;;;2.93;2.73;;;9.30;97.30;;;;;;5050734;28;20435;-89
2022/09/25 01:59:13;;;;;;;2.50;1.97;;;9.20;97.30;;;;;;5028516;28;20928;-89
2022/09/25 02:01:41;;;;;;;6.33;3.47;;;9.20;97.30;;;;;;5048778;28;20513;-90
2022/09/25 02:04:20;;;;;;;2.37;2.00;;;9.20;97.30;;;;;;5040987;28;20468;-89
2022/09/25 02:06:48;;;;;;;9.73;3.63;;;9.20;97.30;;;;;;5038127;28;20438;-89
2022/09/25 02:09:31;;;;;;;3.53;2.67;;;9.20;97.30;;;;;;5039541;28;20871;-89
2022/09/25 02:12:03;;;;;;;6.63;3.03;;;9.20;97.30;;;;;;5055646;28;20417;-89
2022/09/25 02:14:35;;;;;;;2.50;2.13;;;9.10;97.30;;;;;;5051193;28;20422;-89
2022/09/25 02:17:07;;;;;;;3.37;3.13;;;9.10;97.30;;;;;;5052423;28;20508;-90
2022/09/25 02:22:24;;;;;;;2.47;1.83;;;9.00;97.30;;;;;;5052347;28;20413;-90
2022/09/25 02:24:55;;;;;;;2.30;2.13;;;9.10;97.30;;;;;;5045482;28;20428;-90
2022/09/25 02:27:23;;;;;;;2.63;2.43;;;9.10;97.30;;;;;;5045340;28;20899;-89
2022/09/25 02:29:49;;;;;;;3.93;2.20;;;9.10;97.30;;;;;;5050790;28;20784;-90
2022/09/25 02:32:18;;;;;;;3.40;3.20;;;9.10;97.30;;;;;;5044326;28;20419;-90
2022/09/25 02:34:44;;;;;;;3.50;2.60;;;9.00;97.30;;;;;;5050877;28;20427;-90
2022/09/25 02:37:14;;;;;;;4.77;3.73;;;9.00;97.30;;;;;;5050830;28;20414;-89
2022/09/25 02:39:42;;;;;;;5.23;3.03;;;9.00;97.30;;;;;;5038304;28;20198;-90
2022/09/25 02:42:23;;;;;;;4.80;3.73;;;9.00;97.30;;;;;;5052617;28;20935;-90
2022/09/25 02:45:08;;;;;;;3.10;2.80;;;9.00;97.30;;;;;;5054622;28;20434;-90
2022/09/25 02:47:52;;;;;;;2.93;2.73;;;9.00;97.30;;;;;;5053965;28;20837;-90
2022/09/25 02:50:34;;;;;;;3.27;3.10;;;9.00;97.30;;;;;;5053490;28;20482;-91
2022/09/25 02:53:18;;;;;;;3.10;2.83;;;9.00;97.30;;;;;;5045244;28;20430;-90
2022/09/25 02:56:02;;;;;;;6.83;4.17;;;9.00;97.30;;;;;;5054533;28;20460;-91
2022/09/25 02:58:38;;;;;;;2.47;2.30;;;9.00;97.30;;;;;;5054345;28;20434;-90
2022/09/25 03:01:07;;;;;;;4.70;2.43;;;9.00;97.30;;;;;;5054159;28;20425;-88
2022/09/25 03:03:33;;;;;;;8.43;3.97;;;9.00;97.30;;;;;;5054284;28;20453;-90
2022/09/25 03:06:04;;;;;;;3.10;2.43;;;9.10;97.30;;;;;;5054189;28;20457;-90
2022/09/25 03:08:40;;;;;;;6.20;2.60;;;9.10;97.30;;;;;;5054129;28;20419;-90
2022/09/25 03:11:11;;;;;;;3.93;3.03;;;9.10;97.30;;;;;;5054287;28;20425;-90
2022/09/25 03:13:40;;;;;;;2.90;2.50;;;9.10;97.30;;;;;;5055790;28;20429;-88
2022/09/25 03:16:14;;;;;;;2.67;2.30;;;9.10;97.30;;;;;;5053928;28;20473;-89
2022/09/25 03:18:40;;;;;;;3.37;2.60;;;9.10;97.30;;;;;;5059109;28;20797;-89
2022/09/25 03:21:06;;;;;;;7.10;4.30;;;9.20;97.30;;;;;;5052468;28;20437;-90
2022/09/25 03:23:31;;;;;;;3.80;2.40;;;9.20;97.30;;;;;;5044888;28;20215;-89
2022/09/25 03:25:57;;;;;;;5.57;2.53;;;9.20;97.30;;;;;;5048596;28;20207;-88
2022/09/25 03:28:23;;;;;;;3.93;3.80;;;9.20;97.30;;;;;;5053167;28;20184;-90
2022/09/25 03:31:04;;;;;;;4.10;3.37;;;9.20;97.30;;;;;;5053889;28;20429;-89
2022/09/25 03:33:35;;;;;;;4.20;3.20;;;9.30;97.30;;;;;;5054249;28;20198;-90
2022/09/25 03:36:11;;;;;;;3.50;2.50;;;9.30;97.30;;;;;;5053856;28;20446;-88
2022/09/25 03:38:40;;;;;;;3.93;2.27;;;9.30;97.30;;;;;;5053635;28;20940;-91
2022/09/25 03:41:07;;;;;;;3.60;3.07;;;9.30;97.30;;;;;;5054987;28;20422;-90
2022/09/25 03:43:35;;;;;;;6.50;3.67;;;9.40;97.30;;;;;;5053826;28;20473;-90
2022/09/25 03:46:04;;;;;;;4.67;3.83;;;9.40;97.30;;;;;;5041577;28;20430;-89
2022/09/25 03:48:30;;;;;;;3.60;2.67;;;9.40;97.30;;;;;;5040596;28;20458;-88
2022/09/25 03:50:56;;;;;;;5.27;2.50;;;9.50;97.30;;;;;;5053888;28;20445;-89
2022/09/25 03:53:24;;;;;;;6.23;3.03;;;9.50;97.30;;;;;;5053091;28;20180;-90
2022/09/25 03:55:50;;;;;;;11.93;4.40;;;9.50;97.30;;;;;;5040967;28;20630;-89
2022/09/25 03:58:18;;;;;;;3.67;2.50;;;9.50;97.30;;;;;;5053061;28;20492;-90
2022/09/25 04:00:45;;;;;;;3.40;3.07;;;9.50;97.30;;;;;;5053301;28;20422;-89
2022/09/25 04:03:11;;;;;;;4.97;3.53;;;9.50;97.30;;;;;;5052914;28;20552;-89
2022/09/25 04:05:37;;;;;;;3.10;2.77;;;9.50;97.30;;;;;;5045206;28;20439;-89
2022/09/25 04:08:09;;;;;;;3.30;2.70;;;9.60;97.30;;;;;;5048578;28;20418;-87
2022/09/25 04:10:39;;;;;;;6.17;3.23;;;9.60;97.30;;;;;;5043054;28;20448;-89
2022/09/25 04:13:05;;;;;;;4.57;3.37;;;9.60;97.30;;;;;;5052513;28;20783;-89
2022/09/25 04:15:33;;;;;;;5.77;4.37;;;9.60;97.30;;;;;;5053213;28;20767;-90
2022/09/25 04:17:59;;;;;;;5.93;4.03;;;9.70;97.30;;;;;;5053575;28;20471;-89
2022/09/25 04:20:25;;;;;;;4.20;2.70;;;9.70;97.30;;;;;;5053180;28;20435;-89
2022/09/25 04:22:50;;;;;;;2.93;2.63;;;9.70;97.30;;;;;;5054011;28;20254;-87
2022/09/25 04:25:18;;;;;;;5.87;3.03;;;9.80;97.30;;;;;;5052980;28;20195;-90
2022/09/25 04:27:44;;;;;;;4.77;3.20;;;9.80;97.30;;;;;;5053079;28;20177;-90
2022/09/25 04:30:15;;;;;;;3.80;2.50;;;9.80;97.30;;;;;;5054118;28;20441;-89
2022/09/25 04:35:26;;;;;;;3.73;3.00;;;9.80;97.30;;;;;;5054369;28;20440;-90
2022/09/25 04:37:53;;;;;;;5.70;4.30;;;9.80;97.30;;;;;;5052352;28;20418;-89
2022/09/25 04:40:19;;;;;;;3.50;3.00;;;9.90;97.30;;;;;;5053126;28;20410;-89
2022/09/25 04:42:45;;;;;;;2.20;2.00;;;9.90;97.30;;;;;;5052006;28;20472;-89
2022/09/25 04:45:10;;;;;;;6.77;4.07;;;9.90;97.30;;;;;;5053491;28;20199;-90
2022/09/25 04:47:36;;;;;;;9.10;4.10;;;9.90;97.30;;;;;;5051780;28;20277;-89
2022/09/25 04:50:01;;;;;;;6.50;2.50;;;9.90;97.30;;;;;;5052475;28;20194;-90
2022/09/25 04:52:27;;;;;;;4.33;3.10;;;9.90;97.30;;;;;;5053117;28;20188;-88
2022/09/25 04:54:55;;;;;;;3.73;2.73;;;10.00;97.30;;;;;;5053604;28;20626;-88
2022/09/25 04:57:22;;;;;;;5.00;3.93;;;10.00;97.30;;;;;;5045139;28;20415;-89
2022/09/25 04:59:49;;;;;;;8.07;5.40;;;10.00;97.30;;;;;;5045449;28;20418;-88
2022/09/25 05:02:18;;;;;;;5.40;2.83;;;10.00;97.30;;;;;;5046096;28;20419;-90
2022/09/25 05:04:43;;;;;;;2.73;2.53;;;10.00;97.30;;;;;;5045198;28;21023;-89
2022/09/25 05:07:09;;;;;;;6.27;3.20;;;10.00;97.30;;;;;;5051814;28;20502;-88
2022/09/25 05:09:34;;;;;;;8.87;3.70;;;10.10;97.30;;;;;;5048925;28;20176;-90
2022/09/25 05:12:00;;;;;;;2.90;2.63;;;10.10;97.30;;;;;;5045008;28;20169;-90
2022/09/25 05:14:26;;;;;;;4.60;3.03;;;10.10;97.30;;;;;;5048501;28;20788;-90
2022/09/25 05:16:51;;;;;;;3.57;3.13;;;10.10;97.30;;;;;;5050277;28;20234;-90
2022/09/25 05:19:17;;;;;;;3.43;2.77;;;10.10;97.30;;;;;;5042173;28;20659;-90
2022/09/25 05:21:43;;;;;;;9.90;4.40;;;10.10;97.30;;;;;;5041413;28;20179;-91
2022/09/25 05:24:09;;;;;;;4.90;3.80;;;10.20;97.30;;;;;;5050522;28;20191;-90
2022/09/25 05:26:36;;;;;;;4.03;3.73;;;10.20;97.30;;;;;;5050429;28;20338;-89
2022/09/25 05:29:03;;;;;;;7.73;4.90;;;10.20;97.30;;;;;;5046595;28;20411;-90
2022/09/25 05:31:28;;;;;;;4.70;3.13;;;10.20;97.30;;;;;;5041440;28;20419;-90
2022/09/25 05:33:54;;;;;;;6.63;4.60;;;10.30;97.30;;;;;;5048659;28;20521;-91
2022/09/25 05:36:19;;;;;;;3.93;3.70;;;10.30;97.30;;;;;;5049966;28;20229;-90
2022/09/25 05:38:45;;;;;;;6.07;4.20;;;10.30;97.30;;;;;;5047698;28;20182;-90
2022/09/25 05:41:12;;;;;;;5.13;3.63;;;10.30;97.30;;;;;;5044607;28;20193;-88
2022/09/25 05:43:40;;;;;;;9.50;5.03;;;10.30;97.30;;;;;;5041505;28;20609;-87
2022/09/25 05:46:06;;;;;;;5.80;3.67;;;10.30;97.30;;;;;;5042487;28;20497;-87
2022/09/25 05:48:31;;;;;;;2.90;2.37;;;10.30;97.30;;;;;;5063190;28;20458;-87
2022/09/25 05:50:57;;;;;;;4.80;4.00;;;10.30;97.30;;;;;;5037279;28;20491;-89
2022/09/25 05:53:23;;;;;;;5.33;3.33;;;10.30;97.30;;;;;;5042830;28;20653;-88
2022/09/25 05:55:54;;;;;;;3.33;3.13;;;10.30;97.30;;;;;;5042859;28;20487;-87
2022/09/25 05:58:20;;;;;;;4.67;4.03;;;10.40;97.30;;;;;;5041691;28;20438;-91
2022/09/25 06:00:46;;;;;;;3.50;3.33;;;10.40;97.30;;;;;;5058015;28;20422;-90
2022/09/25 06:03:15;;;;;;;3.93;3.40;;;10.40;97.30;;;;;;5046156;28;20482;-88
2022/09/25 06:05:40;;;;;;;2.70;2.50;;;10.40;97.30;;;;;;5044662;28;21035;-90
2022/09/25 06:08:07;;;;;;;4.10;2.67;;;10.40;97.30;;;;;;5042003;28;20537;-89
2022/09/25 06:10:33;;;;;;;3.40;2.90;;;10.40;97.30;;;;;;5045240;28;20569;-90
2022/09/25 06:13:03;;;;;;;4.50;3.40;;;10.40;97.30;;;;;;5041892;28;20426;-89
2022/09/25 06:15:34;;;;;;;5.70;3.20;;;10.50;97.30;;;;;;5040479;28;20458;-88
2022/09/25 06:18:00;;;;;;;3.30;2.97;;;10.50;97.30;;;;;;5048004;28;20796;-88
2022/09/25 06:20:25;;;;;;;3.60;3.40;;;10.50;97.30;;;;;;5048267;28;20418;-90
2022/09/25 06:22:56;;;;;;;4.23;3.93;;;10.60;97.30;;;;;;5048066;28;20187;-90
2022/09/25 06:25:24;;;;;;;10.30;5.83;;;10.60;97.30;;;;;;5043070;28;20200;-88
2022/09/25 06:27:54;;;;;;;3.93;3.40;;;10.70;97.30;;;;;;5047098;28;20933;-89
2022/09/25 06:30:22;;;;;;;5.87;3.57;;;10.70;97.30;;;;;;5050414;28;20422;-90
2022/09/25 06:32:49;;;;;;;6.27;5.93;;;10.70;97.30;;;;;;5047056;28;20458;-90
2022/09/25 06:35:15;;;;;;;5.63;4.00;;;10.80;97.30;;;;;;5046651;28;20477;-89
2022/09/25 06:37:40;;;;;;;11.03;4.50;;;10.80;97.30;;;;;;5049214;28;20454;-87
2022/09/25 06:40:07;;;;;;;4.00;3.77;;;10.90;97.30;;;;;;5041659;28;20176;-89
2022/09/25 06:42:34;;;;;;;4.67;4.37;;;10.90;97.30;;;;;;5044465;28;20642;-89
2022/09/25 06:45:00;;;;;;;4.70;3.80;;;10.90;97.30;;;;;;5047169;28;20797;-89
2022/09/25 06:47:25;;;;;;;8.40;4.13;;;11.00;97.30;;;;;;5047597;28;20457;-90
2022/09/25 06:49:51;;;;;;;11.33;7.60;;;11.00;97.30;;;;;;5049170;28;20410;-89
2022/09/25 06:52:17;;;;;;;6.10;4.20;;;11.00;97.30;;;;;;5050454;28;20183;-89
2022/09/25 06:54:42;;;;;;;4.57;3.90;;;11.10;97.30;;;;;;5045356;28;20176;-90
2022/09/25 06:57:08;;;;;;;4.00;3.37;;;11.10;97.30;;;;;;5046600;28;20221;-91
2022/09/25 06:59:34;;;;;;;5.50;3.50;;;11.10;97.30;;;;;;5047052;28;20784;-89
2022/09/25 07:03:43;;;;;;;6.53;4.17;;;11.20;97.30;;;;;;5045956;28;20601;-89
2022/09/25 07:04:50;;;;;;;4.43;2.87;;;11.20;97.30;;;;;;5042389;28;20201;-88
2022/09/25 07:07:19;;;;;;;5.47;4.13;;;11.20;97.30;;;;;;5043196;28;20795;-88
2022/09/25 07:09:45;;;;;;;9.23;6.83;;;11.30;97.30;;;;;;5042412;28;20419;-91
2022/09/25 07:12:10;;;;;;;5.47;4.17;;;11.30;97.30;;;;;;5046859;28;20423;-88
2022/09/25 07:14:37;;;;;;;10.13;4.97;;;11.40;97.30;;;;;;5040695;28;20449;-88
2022/09/25 07:17:03;;;;;;;6.40;3.80;;;11.40;97.30;;;;;;5044980;28;20229;-88
2022/09/25 07:19:28;;;;;;;11.37;6.67;;;11.50;97.30;;;;;;5041027;28;20422;-88
2022/09/25 07:21:54;;;;;;;7.27;4.33;;;11.50;97.30;;;;;;5044391;28;20551;-89
2022/09/25 07:24:20;;;;;;;7.73;4.43;;;11.60;97.30;;;;;;5043262;28;20204;-91
2022/09/25 07:26:48;;;;;;;6.63;5.27;;;11.60;97.30;;;;;;5042772;28;20200;-88
2022/09/25 07:29:15;;;;;;;5.90;4.50;;;11.60;97.30;;;;;;5052162;28;20417;-88
2022/09/25 07:31:42;;;;;;;12.47;4.20;;;11.70;97.30;;;;;;5040177;28;20773;-88
2022/09/25 07:34:11;;;;;;;16.53;5.33;;;11.70;97.30;;;;;;5050387;28;20549;-89
2022/09/25 07:36:38;;;;;;;8.33;5.10;;;11.70;97.30;;;;;;5047193;28;20434;-84
2022/09/25 07:39:05;;;;;;;9.17;5.97;;;11.80;97.30;;;;;;5047549;28;20426;-86
2022/09/25 07:41:30;;;;;;;6.97;5.20;;;11.80;97.30;;;;;;5046488;28;20422;-86
2022/09/25 07:43:57;;;;;;;6.87;6.47;;;11.90;97.30;;;;;;5046133;28;20465;-86
2022/09/25 07:46:27;;;;;;;7.77;5.43;;;11.90;97.30;;;;;;5048594;28;20195;-90
2022/09/25 07:48:53;;;;;;;10.63;6.60;;;12.00;97.30;;;;;;5046251;28;20465;-86
2022/09/25 07:51:20;;;;;;;8.73;4.87;;;12.00;97.30;;;;;;5047884;28;20426;-87
2022/09/25 07:53:48;;;;;;;8.33;5.97;;;12.10;97.30;;;;;;5041669;28;20476;-86
2022/09/25 07:56:14;;;;;;;8.23;5.90;;;12.20;97.30;;;;;;5049656;28;20473;-86
2022/09/25 07:58:39;;;;;;;7.70;5.50;;;12.20;97.30;;;;;;5041850;28;20472;-89
2022/09/25 08:01:10;;;;;;;7.23;6.07;;;12.30;97.30;;;;;;5052893;28;20180;-89
2022/09/25 08:03:35;;;;;;;7.70;5.27;;;12.40;97.30;;;;;;5053645;28;20254;-88
2022/09/25 08:06:02;;;;;;;10.00;5.93;;;12.50;97.30;;;;;;5044907;28;20447;-89
2022/09/25 08:08:29;;;;;;;6.83;4.23;;;12.50;97.30;;;;;;5067891;28;20184;-90
2022/09/25 08:11:02;;;;;;;6.30;5.00;;;12.60;97.30;;;;;;5049811;28;20430;-89
2022/09/25 08:13:31;;;;;;;7.70;6.00;;;12.60;97.30;;;;;;5046739;28;20426;-92
2022/09/25 08:15:56;;;;;;;13.60;5.27;;;12.70;97.30;;;;;;5050943;28;20461;-93
2022/09/25 08:18:22;;;;;;;9.90;4.77;;;12.70;97.30;;;;;;5040831;28;20430;-91
2022/09/25 08:20:47;;;;;;;4.93;4.50;;;12.70;97.30;;;;;;5049807;28;20241;-93
2022/09/25 08:23:13;;;;;;;6.20;4.23;;;12.80;97.30;;;;;;5054298;28;20199;-92
2022/09/25 08:25:38;;;;;;;9.03;5.80;;;12.80;97.30;;;;;;5049442;28;20213;-91
2022/09/25 08:28:08;;;;;;;11.23;7.67;;;12.90;97.30;;;;;;5050067;28;20539;-91
2022/09/25 08:30:35;;;;;;;8.43;5.23;;;12.90;97.30;;;;;;5045425;28;20271;-91
2022/09/25 08:33:01;;;;;;;8.53;5.60;;;12.90;97.30;;;;;;5067168;28;21105;-90
2022/09/25 08:35:26;;;;;;;6.73;5.13;;;13.00;97.30;;;;;;5050075;28;20438;-90
2022/09/25 08:37:52;;;;;;;8.53;6.77;;;13.00;97.30;;;;;;5051139;28;20180;-92
2022/09/25 08:40:21;;;;;;;13.27;6.53;;;13.10;97.30;;;;;;5050346;28;20187;-91
2022/09/25 08:42:51;;;;;;;8.40;4.23;;;13.10;97.30;;;;;;5050730;28;20216;-90
2022/09/25 08:51:04;;;;;;;10.50;5.40;;;13.30;97.30;;;;;;5054581;28;20397;-92
2022/09/25 08:53:32;;;;;;;8.33;5.53;;;13.40;97.30;;;;;;5047207;28;20427;-90
2022/09/25 08:56:13;;;;;;;8.00;5.30;;;13.50;97.30;;;;;;5043971;28;20489;-90
2022/09/25 08:58:41;;;;;;;11.23;6.20;;;13.50;97.30;;;;;;5048502;28;20402;-90
2022/09/25 09:01:12;;;;;;;8.30;5.70;;;13.60;97.30;;;;;;5046396;28;20410;-90
2022/09/25 09:04:04;;;;;;;6.90;4.70;;;13.70;97.30;;;;;;5047972;28;20486;-90
2022/09/25 09:06:31;;;;;;;9.60;5.73;;;13.70;97.30;;;;;;5048465;28;20437;-91
2022/09/25 09:09:05;;;;;;;10.23;5.17;;;13.80;97.30;;;;;;5049741;28;20478;-90
2022/09/25 09:11:36;;;;;;;7.70;5.83;;;13.90;97.30;;;;;;5053357;28;20433;-93
2022/09/25 09:14:08;;;;;;;8.27;4.73;;;13.90;97.30;;;;;;5053080;28;20429;-92
2022/09/25 09:16:40;;;;;;;13.43;6.50;;;14.00;97.30;;;;;;5054628;28;20446;-92
2022/09/25 09:19:08;;;;;;;7.97;5.30;;;14.00;97.30;;;;;;5051720;28;20433;-90
2022/09/25 09:21:46;;;;;;;14.43;7.00;;;14.10;97.30;;;;;;5045556;28;20476;-91
2022/09/25 09:24:26;;;;;;;11.30;4.40;;;14.10;97.30;;;;;;5064815;28;20508;-90
2022/09/25 09:27:27;;;;;;;8.00;4.90;;;14.20;97.30;;;;;;5051688;28;20523;-91
2022/09/25 09:30:09;;;;;;;8.47;4.63;;;14.30;97.30;;;;;;5051349;28;20407;-92
2022/09/25 09:32:55;;;;;;;10.57;5.53;;;14.40;97.30;;;;;;5053663;28;20489;-92
2022/09/25 09:35:46;;;;;;;9.63;4.70;;;14.40;97.30;;;;;;5052082;28;20430;-91
2022/09/25 09:38:37;;;;;;;8.47;4.87;;;14.50;97.30;;;;;;5044984;28;20605;-91
2022/09/25 09:41:13;;;;;;;9.73;5.17;;;14.60;97.30;;;;;;5046987;28;20410;-91
2022/09/25 09:43:57;;;;;;;11.10;4.10;;;14.60;97.30;;;;;;5052540;28;20484;-93
2022/09/25 09:46:43;;;;;;;15.57;5.83;;;14.70;97.30;;;;;;5034313;28;20451;-91
2022/09/25 09:49:18;;;;;;;14.00;6.00;;;14.80;97.30;;;;;;5038767;28;20446;-91
2022/09/25 09:51:52;;;;;;;8.10;4.20;;;14.90;97.30;;;;;;5047742;28;20484;-91
2022/09/25 09:54:36;;;;;;;7.60;4.00;;;15.00;97.30;;;;;;5042739;28;20457;-91
2022/09/25 09:57:09;;;;;;;10.30;5.63;;;15.00;97.30;;;;;;5054269;28;20437;-91
2022/09/25 09:59:49;;;;;;;8.53;4.33;;;15.10;97.30;;;;;;5044147;28;20929;-91
2022/09/25 10:03:00;;;;;;;7.90;4.97;;;15.10;97.30;;;;;;5044779;28;20971;-91
2022/09/25 10:06:01;;;;;;;5.00;3.70;;;15.20;97.30;;;;;;4942981;28;20478;-91
2022/09/25 10:09:10;;;;;;;5.27;3.53;;;15.30;97.30;;;;;;4944016;28;20418;-91
2022/09/25 10:14:50;;;;;;;9.80;5.67;;;15.40;97.30;;;;;;4948240;28;20429;-92
2022/09/25 10:17:23;;;;;;;6.47;4.73;;;15.40;97.30;;;;;;5017588;28;20937;-90
2022/09/25 10:23:31;;;;;;;15.00;5.67;;;15.40;97.30;;;;;;4941212;29;20415;-91
2022/09/25 10:25:59;;;;;;;8.90;3.27;;;15.40;97.30;;;;;;4875932;29;20539;-91
2022/09/25 10:28:30;;;;;;;8.20;4.20;;;15.50;97.30;;;;;;4935448;28;20450;-92
2022/09/25 10:30:57;;;;;;;11.87;4.27;;;15.50;97.30;;;;;;5009470;28;20739;-91
2022/09/25 10:33:29;;;;;;;10.23;4.70;;;15.60;97.30;;;;;;5050204;28;20423;-91
2022/09/25 10:35:55;;;;;;;10.83;5.17;;;15.70;97.30;;;;;;5049889;28;20992;-91
2022/09/25 10:39:10;;;;;;;11.73;5.30;;;15.80;97.30;;;;;;5049612;28;20846;-91
2022/09/25 10:42:32;;;;;;;9.83;4.33;;;15.90;97.30;;;;;;5049504;28;20533;-91
2022/09/25 10:51:31;;;;;;;9.93;5.30;;;16.30;97.30;;;;;;4988947;28;20527;-90
2022/09/25 10:54:20;;;;;;;5.77;3.30;;;16.50;97.30;;;;;;4972808;28;20429;-87
2022/09/25 10:56:49;;;;;;;4.40;2.93;;;16.50;97.30;;;;;;4961611;28;20447;-91
2022/09/25 10:59:38;;;;;;;6.40;3.87;;;16.60;97.30;;;;;;4988293;28;20514;-92
2022/09/25 11:03:00;;;;;;;6.27;3.73;;;16.70;97.30;;;;;;4980315;28;20466;-89
2022/09/25 11:05:49;;;;;;;5.67;4.13;;;16.80;97.30;;;;;;5042325;28;20941;-89
2022/09/25 11:08:40;;;;;;;6.17;4.67;;;16.80;97.30;;;;;;5042931;28;20410;-91
2022/09/25 11:11:11;;;;;;;8.97;4.60;;;17.00;97.30;;;;;;5052782;28;20421;-91
2022/09/25 11:13:53;;;;;;;8.60;4.70;;;17.00;97.30;;;;;;5053231;28;20410;-87
2022/09/25 11:16:51;;;;;;;6.43;4.77;;;17.00;97.30;;;;;;5053204;28;20449;-91
2022/09/25 11:19:41;;;;;;;6.23;3.80;;;17.10;97.30;;;;;;5052834;28;20790;-90
2022/09/25 11:25:17;;;;;;;10.13;4.93;;;17.40;97.30;;;;;;5027301;28;21018;-91
2022/09/25 11:28:09;;;;;;;6.17;4.30;;;17.50;97.30;;;;;;5049275;28;20430;-91
2022/09/25 11:31:10;;;;;;;7.47;4.60;;;17.60;97.30;;;;;;5046783;28;20460;-91
2022/09/25 11:34:11;;;;;;;13.93;5.87;;;17.70;97.30;;;;;;5020644;28;20426;-92
2022/09/25 11:37:40;;;;;;;5.33;4.00;;;17.80;97.30;;;;;;5058911;28;20438;-92
2022/09/25 11:43:30;;;;;;;6.83;5.33;;;17.80;97.30;;;;;;5034456;28;20836;-91
2022/09/25 11:49:50;;;;;;;9.60;6.07;;;18.10;97.30;;;;;;5040754;28;20453;-89
2022/09/25 11:52:50;;;;;;;6.17;3.30;;;18.30;97.30;;;;;;5039144;28;20425;-90
2022/09/25 11:55:38;;;;;;;8.53;4.40;;;18.50;97.30;;;;;;5050752;28;20492;-91
2022/09/25 11:58:36;;;;;;;8.63;4.60;;;18.60;97.20;;;;;;5044911;28;20412;-90
2022/09/25 12:01:17;;;;;;;9.30;5.00;;;18.70;96.70;;;;;;5056105;28;20419;-91
2022/09/25 12:04:11;;;;;;;6.47;3.80;;;18.70;96.60;;;;;;5040259;28;20481;-92
2022/09/25 12:06:47;;;;;;;5.83;2.73;;;18.70;95.50;;;;;;5050568;28;20450;-91
2022/09/25 12:09:33;;;;;;;6.73;4.83;;;18.60;95.70;;;;;;5042997;28;20426;-90
2022/09/25 12:12:37;;;;;;;8.03;5.00;;;18.70;95.90;;;;;;5028653;28;20410;-92
2022/09/25 12:15:24;;;;;;;6.10;4.50;;;18.80;95.40;;;;;;5050840;28;20503;-92
2022/09/25 12:17:52;;;;;;;6.30;4.57;;;18.70;94.60;;;;;;5051552;28;20809;-90
2022/09/25 12:20:42;;;;;;;6.27;4.27;;;18.70;95.20;;;;;;5051781;28;20429;-90
2022/09/25 12:23:36;;;;;;;6.30;3.47;;;18.90;95.80;;;;;;5050413;28;20469;-91
2022/09/25 12:26:38;;;;;;;42.33;4.43;;;19.00;95.90;;;;;;5037328;28;20489;-90
2022/09/25 12:29:33;;;;;;;7.63;5.27;;;19.20;95.80;;;;;;5045508;28;20406;-90
2022/09/25 12:32:11;;;;;;;6.77;3.90;;;19.30;94.40;;;;;;5040489;28;20419;-90
2022/09/25 12:35:21;;;;;;;6.40;3.90;;;19.30;93.90;;;;;;5037925;28;20946;-90
2022/09/25 12:37:52;;;;;;;7.90;4.27;;;19.40;93.30;;;;;;5051739;28;20414;-90
2022/09/25 12:40:25;;;;;;;6.90;4.17;;;19.40;93.40;;;;;;5061149;28;20422;-91
2022/09/25 12:43:06;;;;;;;5.33;3.00;;;19.50;92.80;;;;;;5038680;28;20429;-89
2022/09/25 12:45:44;;;;;;;8.73;4.70;;;19.60;92.70;;;;;;5037801;28;20437;-91
2022/09/25 12:48:34;;;;;;;5.93;3.60;;;19.70;93.60;;;;;;5051068;28;20546;-91
2022/09/25 12:51:06;;;;;;;7.70;5.00;;;19.80;92.80;;;;;;5051344;28;20410;-90
2022/09/25 12:53:38;;;;;;;4.60;3.00;;;20.00;92.80;;;;;;5038683;28;20423;-90
2022/09/25 12:56:16;;;;;;;4.07;2.43;;;20.10;92.90;;;;;;5050576;28;20488;-91
2022/09/25 12:58:53;;;;;;;5.93;3.63;;;20.20;93.20;;;;;;5038251;28;20421;-89
2022/09/25 13:01:28;;;;;;;3.33;3.13;;;20.30;91.90;;;;;;5039162;28;20441;-90
2022/09/25 13:04:11;;;;;;;5.17;4.90;;;20.50;92.20;;;;;;5040149;28;20470;-90
2022/09/25 13:07:22;;;;;;;6.27;4.20;;;20.60;91.60;;;;;;5039282;28;20441;-89
2022/09/25 13:09:48;;;;;;;6.77;3.67;;;20.60;90.70;;;;;;5015628;28;20429;-89
2022/09/25 13:12:34;;;;;;;6.33;2.77;;;20.60;90.10;;;;;;5050474;28;20920;-88
2022/09/25 13:15:03;;;;;;;6.30;3.20;;;20.70;91.20;;;;;;5051653;28;20975;-90
2022/09/25 13:17:30;;;;;;;3.77;2.53;;;20.60;89.70;;;;;;5040808;28;20415;-89
2022/09/25 13:20:27;;;;;;;5.27;2.40;;;20.50;90.10;;;;;;5050837;28;21004;-89
2022/09/25 13:23:01;;;;;;;3.53;2.90;;;20.50;90.40;;;;;;5051899;28;20421;-89
2022/09/25 13:25:27;;;;;;;4.40;3.30;;;20.50;90.60;;;;;;5052831;28;20820;-89
2022/09/25 13:27:53;;;;;;;4.67;2.47;;;20.60;90.90;;;;;;5051920;28;20435;-90
2022/09/25 13:30:27;;;;;;;3.20;2.13;;;20.70;90.40;;;;;;5044846;28;20439;-91
2022/09/25 13:32:59;;;;;;;6.90;4.17;;;20.70;89.90;;;;;;5042660;28;20983;-91
2022/09/25 13:35:26;;;;;;;6.30;3.63;;;20.80;89.70;;;;;;5048121;28;20474;-90
2022/09/25 13:37:54;;;;;;;3.97;2.67;;;20.80;89.80;;;;;;5045062;28;20437;-89
2022/09/25 13:40:44;;;;;;;4.07;2.40;;;20.90;89.20;;;;;;5044017;28;20427;-90
2022/09/25 13:43:28;;;;;;;5.47;3.53;;;20.90;88.70;;;;;;5037763;28;20450;-90
2022/09/25 13:46:27;;;;;;;4.27;2.80;;;21.10;89.30;;;;;;5052886;28;20441;-90
2022/09/25 13:48:54;;;;;;;4.80;2.77;;;21.20;88.00;;;;;;5002004;28;20470;-90
2022/09/25 13:51:19;;;;;;;6.20;2.67;;;21.20;87.50;;;;;;5041281;28;20463;-90
2022/09/25 13:53:59;;;;;;;3.47;2.20;;;21.10;87.30;;;;;;5051054;28;20422;-91
2022/09/25 13:56:47;;;;;;;9.80;3.43;;;21.00;87.60;;;;;;5051993;28;20341;-91
2022/09/25 13:59:13;;;;;;;5.83;3.87;;;21.10;87.20;;;;;;5040271;28;20426;-90
2022/09/25 14:01:42;;;;;;;2.60;1.90;;;21.00;87.30;;;;;;5053620;28;20860;-91